Terminal Aerodrome Forecast
Issued by NWS

Home | Current Version | Previous Version | Text Only | Print | Product List | Glossary Off
Versions: 1 2 3 4 5 6 7 8 9 10 11 12 13 14 15 16

000
FTUS43 KGRB 190500
TAFMTW
TAF
KMTW 190520Z 1906/2006 25012KT P6SM SCT025 OVC035
     FM191100 21006KT 4SM -SN SCT018 OVC030
      TEMPO 1911/1915 1 1/2SM -SN OVC018
     FM191600 26008KT 6SM -SN SCT025 OVC035
     FM192000 27016G24KT P6SM -SN BKN035 BKN050
     FM200000 27014G20KT P6SM SCT025 BKN040=

USA.gov is the U.S. government's official web portal to all federal, state and local government web resources and services.